sensor_id;sensor_type;location;lat;lon;timestamp;P1;durP1;ratioP1;P2;durP2;ratioP2
7291;SDS011;3687;47.648;8.204;2022-08-20T00:02:18;3.80;;;3.60;;
7291;SDS011;3687;47.648;8.204;2022-08-20T00:04:44;3.20;;;3.00;;
7291;SDS011;3687;47.648;8.204;2022-08-20T00:07:10;3.30;;;3.10;;
7291;SDS011;3687;47.648;8.204;2022-08-20T00:09:36;3.70;;;3.40;;
7291;SDS011;3687;47.648;8.204;2022-08-20T00:12:03;3.20;;;3.00;;
7291;SDS011;3687;47.648;8.204;2022-08-20T00:14:29;3.73;;;3.50;;
7291;SDS011;3687;47.648;8.204;2022-08-20T00:16:55;3.20;;;3.00;;
7291;SDS011;3687;47.648;8.204;2022-08-20T00:19:21;3.70;;;3.50;;
7291;SDS011;3687;47.648;8.204;2022-08-20T00:21:47;3.57;;;3.37;;
7291;SDS011;3687;47.648;8.204;2022-08-20T00:24:13;3.77;;;3.47;;
7291;SDS011;3687;47.648;8.204;2022-08-20T00:26:39;3.70;;;3.40;;
7291;SDS011;3687;47.648;8.204;2022-08-20T00:29:04;3.73;;;3.53;;
7291;SDS011;3687;47.648;8.204;2022-08-20T00:31:30;3.60;;;3.40;;
7291;SDS011;3687;47.648;8.204;2022-08-20T00:33:56;3.83;;;3.53;;
7291;SDS011;3687;47.648;8.204;2022-08-20T00:36:22;3.50;;;3.30;;
7291;SDS011;3687;47.648;8.204;2022-08-20T00:38:48;3.87;;;3.60;;
7291;SDS011;3687;47.648;8.204;2022-08-20T00:41:15;3.27;;;3.07;;
7291;SDS011;3687;47.648;8.204;2022-08-20T00:43:45;3.50;;;3.30;;
7291;SDS011;3687;47.648;8.204;2022-08-20T00:46:31;3.50;;;3.30;;
7291;SDS011;3687;47.648;8.204;2022-08-20T00:48:57;3.30;;;3.10;;
7291;SDS011;3687;47.648;8.204;2022-08-20T00:54:11;3.23;;;3.03;;
7291;SDS011;3687;47.648;8.204;2022-08-20T00:56:48;3.40;;;3.20;;
7291;SDS011;3687;47.648;8.204;2022-08-20T00:59:20;3.33;;;3.13;;
7291;SDS011;3687;47.648;8.204;2022-08-20T01:01:49;3.83;;;3.53;;
7291;SDS011;3687;47.648;8.204;2022-08-20T01:04:16;3.60;;;3.40;;
7291;SDS011;3687;47.648;8.204;2022-08-20T01:06:42;3.50;;;3.30;;
7291;SDS011;3687;47.648;8.204;2022-08-20T01:09:09;4.07;;;3.77;;
7291;SDS011;3687;47.648;8.204;2022-08-20T01:11:35;3.57;;;3.37;;
7291;SDS011;3687;47.648;8.204;2022-08-20T01:14:08;3.50;;;3.30;;
7291;SDS011;3687;47.648;8.204;2022-08-20T01:16:57;3.57;;;3.30;;
7291;SDS011;3687;47.648;8.204;2022-08-20T01:19:29;3.57;;;3.37;;
7291;SDS011;3687;47.648;8.204;2022-08-20T01:22:04;3.00;;;2.80;;
7291;SDS011;3687;47.648;8.204;2022-08-20T01:24:53;3.33;;;3.13;;
7291;SDS011;3687;47.648;8.204;2022-08-20T01:27:25;3.97;;;3.67;;
7291;SDS011;3687;47.648;8.204;2022-08-20T01:29:51;3.80;;;3.50;;
7291;SDS011;3687;47.648;8.204;2022-08-20T01:32:17;3.37;;;3.17;;
7291;SDS011;3687;47.648;8.204;2022-08-20T01:34:42;3.30;;;3.10;;
7291;SDS011;3687;47.648;8.204;2022-08-20T01:37:08;3.80;;;3.60;;
7291;SDS011;3687;47.648;8.204;2022-08-20T01:39:34;3.80;;;3.60;;
7291;SDS011;3687;47.648;8.204;2022-08-20T01:42:08;3.17;;;2.93;;
7291;SDS011;3687;47.648;8.204;2022-08-20T01:44:40;3.40;;;3.20;;
7291;SDS011;3687;47.648;8.204;2022-08-20T01:49:44;3.37;;;3.17;;
7291;SDS011;3687;47.648;8.204;2022-08-20T01:52:16;3.50;;;3.30;;
7291;SDS011;3687;47.648;8.204;2022-08-20T01:55:05;3.30;;;3.10;;
7291;SDS011;3687;47.648;8.204;2022-08-20T01:57:32;3.30;;;3.10;;
7291;SDS011;3687;47.648;8.204;2022-08-20T01:59:59;3.10;;;2.90;;
7291;SDS011;3687;47.648;8.204;2022-08-20T02:02:26;3.30;;;3.10;;
7291;SDS011;3687;47.648;8.204;2022-08-20T02:04:51;3.73;;;3.53;;
7291;SDS011;3687;47.648;8.204;2022-08-20T02:07:18;3.60;;;3.40;;
7291;SDS011;3687;47.648;8.204;2022-08-20T02:09:46;3.50;;;3.30;;
7291;SDS011;3687;47.648;8.204;2022-08-20T02:12:12;3.40;;;3.20;;
7291;SDS011;3687;47.648;8.204;2022-08-20T02:14:56;3.67;;;3.37;;
7291;SDS011;3687;47.648;8.204;2022-08-20T02:17:23;3.60;;;3.40;;
7291;SDS011;3687;47.648;8.204;2022-08-20T02:19:52;3.10;;;2.90;;
7291;SDS011;3687;47.648;8.204;2022-08-20T02:22:41;3.17;;;2.97;;
7291;SDS011;3687;47.648;8.204;2022-08-20T02:25:14;3.43;;;3.23;;
7291;SDS011;3687;47.648;8.204;2022-08-20T02:27:42;3.43;;;3.23;;
7291;SDS011;3687;47.648;8.204;2022-08-20T02:30:14;3.27;;;3.07;;
7291;SDS011;3687;47.648;8.204;2022-08-20T02:32:43;3.67;;;3.47;;
7291;SDS011;3687;47.648;8.204;2022-08-20T02:35:09;3.20;;;3.00;;
7291;SDS011;3687;47.648;8.204;2022-08-20T02:37:38;3.77;;;3.57;;
7291;SDS011;3687;47.648;8.204;2022-08-20T02:40:07;3.60;;;3.40;;
7291;SDS011;3687;47.648;8.204;2022-08-20T02:42:35;3.80;;;3.60;;
7291;SDS011;3687;47.648;8.204;2022-08-20T02:45:05;3.80;;;3.20;;
7291;SDS011;3687;47.648;8.204;2022-08-20T02:47:31;3.30;;;3.10;;
7291;SDS011;3687;47.648;8.204;2022-08-20T02:49:57;3.57;;;3.37;;
7291;SDS011;3687;47.648;8.204;2022-08-20T02:52:23;3.63;;;3.33;;
7291;SDS011;3687;47.648;8.204;2022-08-20T02:54:49;3.20;;;3.00;;
7291;SDS011;3687;47.648;8.204;2022-08-20T02:57:16;3.80;;;3.47;;
7291;SDS011;3687;47.648;8.204;2022-08-20T02:59:44;3.07;;;2.87;;
7291;SDS011;3687;47.648;8.204;2022-08-20T03:02:11;3.63;;;3.33;;
7291;SDS011;3687;47.648;8.204;2022-08-20T03:04:37;3.03;;;2.83;;
7291;SDS011;3687;47.648;8.204;2022-08-20T03:07:04;3.30;;;3.10;;
7291;SDS011;3687;47.648;8.204;2022-08-20T03:09:30;3.60;;;3.40;;
7291;SDS011;3687;47.648;8.204;2022-08-20T03:11:56;3.73;;;3.43;;
7291;SDS011;3687;47.648;8.204;2022-08-20T03:14:22;3.13;;;2.93;;
7291;SDS011;3687;47.648;8.204;2022-08-20T03:16:48;3.67;;;3.47;;
7291;SDS011;3687;47.648;8.204;2022-08-20T03:19:13;3.70;;;3.40;;
7291;SDS011;3687;47.648;8.204;2022-08-20T03:21:39;3.40;;;3.20;;
7291;SDS011;3687;47.648;8.204;2022-08-20T03:24:05;3.47;;;3.23;;
7291;SDS011;3687;47.648;8.204;2022-08-20T03:26:31;3.20;;;3.00;;
7291;SDS011;3687;47.648;8.204;2022-08-20T03:28:56;3.43;;;3.23;;
7291;SDS011;3687;47.648;8.204;2022-08-20T03:31:22;3.40;;;3.20;;
7291;SDS011;3687;47.648;8.204;2022-08-20T03:33:48;3.30;;;3.10;;
7291;SDS011;3687;47.648;8.204;2022-08-20T03:36:14;3.00;;;2.80;;
7291;SDS011;3687;47.648;8.204;2022-08-20T03:38:39;3.50;;;3.30;;
7291;SDS011;3687;47.648;8.204;2022-08-20T03:41:05;3.30;;;3.10;;
7291;SDS011;3687;47.648;8.204;2022-08-20T03:43:31;3.37;;;3.13;;
7291;SDS011;3687;47.648;8.204;2022-08-20T03:45:57;3.37;;;3.17;;
7291;SDS011;3687;47.648;8.204;2022-08-20T03:48:23;3.43;;;3.23;;
7291;SDS011;3687;47.648;8.204;2022-08-20T03:50:49;3.63;;;3.33;;
7291;SDS011;3687;47.648;8.204;2022-08-20T03:53:15;3.53;;;3.33;;
7291;SDS011;3687;47.648;8.204;2022-08-20T03:55:42;3.10;;;2.90;;
7291;SDS011;3687;47.648;8.204;2022-08-20T03:58:10;3.00;;;2.80;;
7291;SDS011;3687;47.648;8.204;2022-08-20T04:00:45;3.50;;;3.30;;
7291;SDS011;3687;47.648;8.204;2022-08-20T04:03:13;2.87;;;2.67;;
7291;SDS011;3687;47.648;8.204;2022-08-20T04:05:40;3.03;;;2.83;;
7291;SDS011;3687;47.648;8.204;2022-08-20T04:08:07;3.30;;;3.10;;
7291;SDS011;3687;47.648;8.204;2022-08-20T04:10:35;3.23;;;3.03;;
7291;SDS011;3687;47.648;8.204;2022-08-20T04:13:01;3.10;;;2.90;;
7291;SDS011;3687;47.648;8.204;2022-08-20T04:15:27;3.50;;;3.30;;
7291;SDS011;3687;47.648;8.204;2022-08-20T04:17:53;3.40;;;3.20;;
7291;SDS011;3687;47.648;8.204;2022-08-20T04:20:20;3.10;;;2.90;;
7291;SDS011;3687;47.648;8.204;2022-08-20T04:22:48;3.20;;;3.00;;
7291;SDS011;3687;47.648;8.204;2022-08-20T04:25:14;3.53;;;3.33;;
7291;SDS011;3687;47.648;8.204;2022-08-20T04:27:40;3.40;;;3.20;;
7291;SDS011;3687;47.648;8.204;2022-08-20T04:30:07;3.30;;;3.10;;
7291;SDS011;3687;47.648;8.204;2022-08-20T04:32:47;3.13;;;2.93;;
7291;SDS011;3687;47.648;8.204;2022-08-20T04:35:14;3.30;;;3.10;;
7291;SDS011;3687;47.648;8.204;2022-08-20T04:37:42;2.97;;;2.77;;
7291;SDS011;3687;47.648;8.204;2022-08-20T04:40:13;3.37;;;3.17;;
7291;SDS011;3687;47.648;8.204;2022-08-20T04:43:00;3.13;;;2.93;;
7291;SDS011;3687;47.648;8.204;2022-08-20T04:45:26;2.80;;;2.60;;
7291;SDS011;3687;47.648;8.204;2022-08-20T04:47:52;3.13;;;2.93;;
7291;SDS011;3687;47.648;8.204;2022-08-20T04:50:18;3.10;;;2.90;;
7291;SDS011;3687;47.648;8.204;2022-08-20T04:52:44;3.80;;;3.50;;
7291;SDS011;3687;47.648;8.204;2022-08-20T04:55:14;2.97;;;2.77;;
7291;SDS011;3687;47.648;8.204;2022-08-20T04:57:41;3.50;;;3.20;;
7291;SDS011;3687;47.648;8.204;2022-08-20T05:00:08;3.00;;;2.80;;
7291;SDS011;3687;47.648;8.204;2022-08-20T05:02:39;2.70;;;2.50;;
7291;SDS011;3687;47.648;8.204;2022-08-20T05:05:06;3.10;;;2.90;;
7291;SDS011;3687;47.648;8.204;2022-08-20T05:07:43;3.10;;;2.90;;
7291;SDS011;3687;47.648;8.204;2022-08-20T05:10:14;3.00;;;2.80;;
7291;SDS011;3687;47.648;8.204;2022-08-20T05:12:42;3.43;;;3.23;;
7291;SDS011;3687;47.648;8.204;2022-08-20T05:15:09;3.20;;;3.00;;
7291;SDS011;3687;47.648;8.204;2022-08-20T05:17:36;3.50;;;3.30;;
7291;SDS011;3687;47.648;8.204;2022-08-20T05:20:03;3.23;;;3.03;;
7291;SDS011;3687;47.648;8.204;2022-08-20T05:22:30;3.10;;;2.90;;
7291;SDS011;3687;47.648;8.204;2022-08-20T05:24:55;3.00;;;2.80;;
7291;SDS011;3687;47.648;8.204;2022-08-20T05:27:23;3.40;;;3.20;;
7291;SDS011;3687;47.648;8.204;2022-08-20T05:29:51;3.03;;;2.83;;
7291;SDS011;3687;47.648;8.204;2022-08-20T05:32:46;3.00;;;2.80;;
7291;SDS011;3687;47.648;8.204;2022-08-20T05:35:13;3.10;;;2.90;;
7291;SDS011;3687;47.648;8.204;2022-08-20T05:37:38;3.30;;;3.10;;
7291;SDS011;3687;47.648;8.204;2022-08-20T05:40:08;2.97;;;2.77;;
7291;SDS011;3687;47.648;8.204;2022-08-20T05:42:36;3.40;;;3.20;;
7291;SDS011;3687;47.648;8.204;2022-08-20T05:45:02;3.10;;;2.90;;
7291;SDS011;3687;47.648;8.204;2022-08-20T05:47:28;3.40;;;3.20;;
7291;SDS011;3687;47.648;8.204;2022-08-20T05:49:54;3.43;;;3.13;;
7291;SDS011;3687;47.648;8.204;2022-08-20T05:52:20;3.13;;;2.93;;
7291;SDS011;3687;47.648;8.204;2022-08-20T05:54:45;3.00;;;2.80;;
7291;SDS011;3687;47.648;8.204;2022-08-20T05:57:11;3.27;;;3.07;;
7291;SDS011;3687;47.648;8.204;2022-08-20T05:59:37;3.20;;;3.00;;
7291;SDS011;3687;47.648;8.204;2022-08-20T06:02:03;3.20;;;3.00;;
7291;SDS011;3687;47.648;8.204;2022-08-20T06:04:49;3.33;;;3.13;;
7291;SDS011;3687;47.648;8.204;2022-08-20T06:07:15;3.37;;;3.17;;
7291;SDS011;3687;47.648;8.204;2022-08-20T06:09:40;3.37;;;3.17;;
7291;SDS011;3687;47.648;8.204;2022-08-20T06:12:06;3.33;;;3.13;;
7291;SDS011;3687;47.648;8.204;2022-08-20T06:14:33;3.57;;;3.37;;
7291;SDS011;3687;47.648;8.204;2022-08-20T06:17:10;3.27;;;3.07;;
7291;SDS011;3687;47.648;8.204;2022-08-20T06:19:37;3.53;;;3.30;;
7291;SDS011;3687;47.648;8.204;2022-08-20T06:22:04;3.00;;;2.80;;
7291;SDS011;3687;47.648;8.204;2022-08-20T06:24:30;3.37;;;3.17;;
7291;SDS011;3687;47.648;8.204;2022-08-20T06:26:57;3.30;;;3.10;;
7291;SDS011;3687;47.648;8.204;2022-08-20T06:29:23;3.97;;;3.13;;
7291;SDS011;3687;47.648;8.204;2022-08-20T06:31:49;3.33;;;3.13;;
7291;SDS011;3687;47.648;8.204;2022-08-20T06:34:15;3.20;;;3.00;;
7291;SDS011;3687;47.648;8.204;2022-08-20T06:36:42;3.37;;;3.17;;
7291;SDS011;3687;47.648;8.204;2022-08-20T06:39:10;3.70;;;3.40;;
7291;SDS011;3687;47.648;8.204;2022-08-20T06:41:37;3.20;;;3.00;;
7291;SDS011;3687;47.648;8.204;2022-08-20T06:44:03;3.20;;;3.00;;
7291;SDS011;3687;47.648;8.204;2022-08-20T06:46:31;3.00;;;2.80;;
7291;SDS011;3687;47.648;8.204;2022-08-20T06:49:00;2.90;;;2.70;;
7291;SDS011;3687;47.648;8.204;2022-08-20T06:51:27;3.23;;;3.03;;
7291;SDS011;3687;47.648;8.204;2022-08-20T06:53:54;3.03;;;2.83;;
7291;SDS011;3687;47.648;8.204;2022-08-20T06:56:20;3.50;;;3.20;;
7291;SDS011;3687;47.648;8.204;2022-08-20T06:58:45;3.50;;;3.30;;
7291;SDS011;3687;47.648;8.204;2022-08-20T07:01:12;2.70;;;2.60;;
7291;SDS011;3687;47.648;8.204;2022-08-20T07:03:38;3.40;;;3.20;;
7291;SDS011;3687;47.648;8.204;2022-08-20T07:06:06;3.30;;;3.10;;
7291;SDS011;3687;47.648;8.204;2022-08-20T07:08:32;3.00;;;2.80;;
7291;SDS011;3687;47.648;8.204;2022-08-20T07:10:58;3.10;;;2.90;;
7291;SDS011;3687;47.648;8.204;2022-08-20T07:13:24;3.20;;;3.00;;
7291;SDS011;3687;47.648;8.204;2022-08-20T07:15:49;3.10;;;2.90;;
7291;SDS011;3687;47.648;8.204;2022-08-20T07:18:15;3.23;;;2.93;;
7291;SDS011;3687;47.648;8.204;2022-08-20T07:20:41;2.90;;;2.70;;
7291;SDS011;3687;47.648;8.204;2022-08-20T07:23:08;3.00;;;2.80;;
7291;SDS011;3687;47.648;8.204;2022-08-20T07:25:36;3.27;;;3.07;;
7291;SDS011;3687;47.648;8.204;2022-08-20T07:28:05;2.93;;;2.73;;
7291;SDS011;3687;47.648;8.204;2022-08-20T07:30:36;3.13;;;2.93;;
7291;SDS011;3687;47.648;8.204;2022-08-20T07:33:21;3.13;;;2.93;;
7291;SDS011;3687;47.648;8.204;2022-08-20T07:35:46;3.23;;;3.03;;
7291;SDS011;3687;47.648;8.204;2022-08-20T07:38:16;3.10;;;2.90;;
7291;SDS011;3687;47.648;8.204;2022-08-20T07:40:48;3.20;;;3.00;;
7291;SDS011;3687;47.648;8.204;2022-08-20T07:43:15;3.00;;;2.80;;
7291;SDS011;3687;47.648;8.204;2022-08-20T07:45:41;3.27;;;3.07;;
7291;SDS011;3687;47.648;8.204;2022-08-20T07:48:08;2.83;;;2.63;;
7291;SDS011;3687;47.648;8.204;2022-08-20T07:50:36;3.10;;;2.90;;
7291;SDS011;3687;47.648;8.204;2022-08-20T07:53:03;2.87;;;2.67;;
7291;SDS011;3687;47.648;8.204;2022-08-20T07:55:29;3.17;;;2.80;;
7291;SDS011;3687;47.648;8.204;2022-08-20T07:57:56;3.23;;;3.03;;
7291;SDS011;3687;47.648;8.204;2022-08-20T08:00:30;3.20;;;3.00;;
7291;SDS011;3687;47.648;8.204;2022-08-20T08:02:56;3.20;;;2.90;;
7291;SDS011;3687;47.648;8.204;2022-08-20T08:05:21;3.13;;;2.93;;
7291;SDS011;3687;47.648;8.204;2022-08-20T08:07:47;3.10;;;2.90;;
7291;SDS011;3687;47.648;8.204;2022-08-20T08:10:14;2.77;;;2.57;;
7291;SDS011;3687;47.648;8.204;2022-08-20T08:12:44;2.87;;;2.53;;
7291;SDS011;3687;47.648;8.204;2022-08-20T08:15:24;4.20;;;3.10;;
7291;SDS011;3687;47.648;8.204;2022-08-20T08:17:52;3.33;;;3.13;;
7291;SDS011;3687;47.648;8.204;2022-08-20T08:20:22;2.93;;;2.73;;
7291;SDS011;3687;47.648;8.204;2022-08-20T08:22:47;2.50;;;2.40;;
7291;SDS011;3687;47.648;8.204;2022-08-20T08:25:14;3.03;;;2.83;;
7291;SDS011;3687;47.648;8.204;2022-08-20T08:27:41;2.77;;;2.57;;
7291;SDS011;3687;47.648;8.204;2022-08-20T08:30:07;3.73;;;3.37;;
7291;SDS011;3687;47.648;8.204;2022-08-20T08:32:34;3.13;;;2.93;;
7291;SDS011;3687;47.648;8.204;2022-08-20T08:35:05;2.97;;;2.77;;
7291;SDS011;3687;47.648;8.204;2022-08-20T08:37:33;3.03;;;2.83;;
7291;SDS011;3687;47.648;8.204;2022-08-20T08:39:58;2.47;;;2.37;;
7291;SDS011;3687;47.648;8.204;2022-08-20T08:42:35;3.10;;;2.90;;
7291;SDS011;3687;47.648;8.204;2022-08-20T08:45:22;3.10;;;2.90;;
7291;SDS011;3687;47.648;8.204;2022-08-20T08:47:51;2.90;;;2.70;;
7291;SDS011;3687;47.648;8.204;2022-08-20T08:50:22;3.40;;;3.20;;
7291;SDS011;3687;47.648;8.204;2022-08-20T08:52:57;3.43;;;3.23;;
7291;SDS011;3687;47.648;8.204;2022-08-20T08:55:26;2.70;;;2.50;;
7291;SDS011;3687;47.648;8.204;2022-08-20T08:57:54;2.87;;;2.67;;
7291;SDS011;3687;47.648;8.204;2022-08-20T09:00:24;3.40;;;3.20;;
7291;SDS011;3687;47.648;8.204;2022-08-20T09:03:03;2.97;;;2.77;;
7291;SDS011;3687;47.648;8.204;2022-08-20T09:05:45;3.13;;;2.93;;
7291;SDS011;3687;47.648;8.204;2022-08-20T09:08:14;2.83;;;2.67;;
7291;SDS011;3687;47.648;8.204;2022-08-20T09:10:43;3.23;;;2.93;;
7291;SDS011;3687;47.648;8.204;2022-08-20T09:13:09;3.00;;;2.80;;
7291;SDS011;3687;47.648;8.204;2022-08-20T09:15:35;2.93;;;2.73;;
7291;SDS011;3687;47.648;8.204;2022-08-20T09:18:01;3.00;;;2.80;;
7291;SDS011;3687;47.648;8.204;2022-08-20T09:20:26;2.97;;;2.77;;
7291;SDS011;3687;47.648;8.204;2022-08-20T09:22:52;3.17;;;2.97;;
7291;SDS011;3687;47.648;8.204;2022-08-20T09:25:18;3.00;;;2.80;;
7291;SDS011;3687;47.648;8.204;2022-08-20T09:27:44;2.60;;;2.40;;
7291;SDS011;3687;47.648;8.204;2022-08-20T09:30:10;3.07;;;2.87;;
7291;SDS011;3687;47.648;8.204;2022-08-20T09:32:37;3.00;;;2.80;;
7291;SDS011;3687;47.648;8.204;2022-08-20T09:35:02;3.00;;;2.80;;
7291;SDS011;3687;47.648;8.204;2022-08-20T09:37:29;2.77;;;2.57;;
7291;SDS011;3687;47.648;8.204;2022-08-20T09:39:56;2.70;;;2.50;;
7291;SDS011;3687;47.648;8.204;2022-08-20T09:42:23;2.60;;;2.40;;
7291;SDS011;3687;47.648;8.204;2022-08-20T09:44:51;3.00;;;2.80;;
7291;SDS011;3687;47.648;8.204;2022-08-20T09:47:17;3.03;;;2.83;;
7291;SDS011;3687;47.648;8.204;2022-08-20T09:49:43;2.63;;;2.43;;
7291;SDS011;3687;47.648;8.204;2022-08-20T09:52:10;3.40;;;3.20;;
7291;SDS011;3687;47.648;8.204;2022-08-20T09:54:47;3.03;;;2.73;;
7291;SDS011;3687;47.648;8.204;2022-08-20T09:57:13;3.20;;;3.00;;
7291;SDS011;3687;47.648;8.204;2022-08-20T09:59:40;3.40;;;3.10;;
7291;SDS011;3687;47.648;8.204;2022-08-20T10:02:06;2.93;;;2.70;;
7291;SDS011;3687;47.648;8.204;2022-08-20T10:04:32;2.87;;;2.67;;
7291;SDS011;3687;47.648;8.204;2022-08-20T10:06:57;3.07;;;2.87;;
7291;SDS011;3687;47.648;8.204;2022-08-20T10:09:23;3.33;;;3.03;;
7291;SDS011;3687;47.648;8.204;2022-08-20T10:11:48;2.63;;;2.43;;
7291;SDS011;3687;47.648;8.204;2022-08-20T10:14:14;3.20;;;2.60;;
7291;SDS011;3687;47.648;8.204;2022-08-20T10:16:39;2.80;;;2.63;;
7291;SDS011;3687;47.648;8.204;2022-08-20T10:19:05;3.00;;;2.80;;
7291;SDS011;3687;47.648;8.204;2022-08-20T10:21:30;2.83;;;2.63;;
7291;SDS011;3687;47.648;8.204;2022-08-20T10:23:57;2.90;;;2.70;;
7291;SDS011;3687;47.648;8.204;2022-08-20T10:26:23;2.77;;;2.57;;
7291;SDS011;3687;47.648;8.204;2022-08-20T10:28:50;3.13;;;2.93;;
7291;SDS011;3687;47.648;8.204;2022-08-20T10:31:15;2.50;;;2.40;;
7291;SDS011;3687;47.648;8.204;2022-08-20T10:33:41;2.80;;;2.60;;
7291;SDS011;3687;47.648;8.204;2022-08-20T10:36:07;3.10;;;2.90;;
7291;SDS011;3687;47.648;8.204;2022-08-20T10:38:39;2.77;;;2.57;;
7291;SDS011;3687;47.648;8.204;2022-08-20T10:41:05;2.83;;;2.30;;
7291;SDS011;3687;47.648;8.204;2022-08-20T10:43:30;2.80;;;2.60;;
7291;SDS011;3687;47.648;8.204;2022-08-20T10:45:56;4.10;;;2.67;;
7291;SDS011;3687;47.648;8.204;2022-08-20T10:48:22;2.83;;;2.63;;
7291;SDS011;3687;47.648;8.204;2022-08-20T10:50:48;2.47;;;2.30;;
7291;SDS011;3687;47.648;8.204;2022-08-20T10:53:14;2.63;;;2.43;;
7291;SDS011;3687;47.648;8.204;2022-08-20T10:55:40;2.90;;;2.70;;
7291;SDS011;3687;47.648;8.204;2022-08-20T10:58:06;2.90;;;2.70;;
7291;SDS011;3687;47.648;8.204;2022-08-20T11:00:33;3.10;;;2.80;;
7291;SDS011;3687;47.648;8.204;2022-08-20T11:02:59;2.67;;;2.30;;
7291;SDS011;3687;47.648;8.204;2022-08-20T11:05:24;2.67;;;2.47;;
7291;SDS011;3687;47.648;8.204;2022-08-20T11:07:50;2.60;;;2.40;;
7291;SDS011;3687;47.648;8.204;2022-08-20T11:10:16;2.53;;;2.33;;
7291;SDS011;3687;47.648;8.204;2022-08-20T11:12:42;3.00;;;2.80;;
7291;SDS011;3687;47.648;8.204;2022-08-20T11:15:08;2.60;;;2.40;;
7291;SDS011;3687;47.648;8.204;2022-08-20T11:17:35;2.70;;;2.50;;
7291;SDS011;3687;47.648;8.204;2022-08-20T11:20:03;2.70;;;2.50;;
7291;SDS011;3687;47.648;8.204;2022-08-20T11:22:31;2.37;;;2.27;;
7291;SDS011;3687;47.648;8.204;2022-08-20T11:24:57;3.47;;;2.80;;
7291;SDS011;3687;47.648;8.204;2022-08-20T11:27:27;2.60;;;2.40;;
7291;SDS011;3687;47.648;8.204;2022-08-20T11:29:55;3.23;;;2.50;;
7291;SDS011;3687;47.648;8.204;2022-08-20T11:32:21;2.60;;;2.50;;
7291;SDS011;3687;47.648;8.204;2022-08-20T11:34:47;2.27;;;2.17;;
7291;SDS011;3687;47.648;8.204;2022-08-20T11:37:13;2.60;;;2.40;;
7291;SDS011;3687;47.648;8.204;2022-08-20T11:39:40;2.80;;;2.60;;
7291;SDS011;3687;47.648;8.204;2022-08-20T11:42:06;2.73;;;2.53;;
7291;SDS011;3687;47.648;8.204;2022-08-20T11:44:32;3.03;;;2.67;;
7291;SDS011;3687;47.648;8.204;2022-08-20T11:47:01;2.47;;;2.27;;
7291;SDS011;3687;47.648;8.204;2022-08-20T11:49:31;2.53;;;2.43;;
7291;SDS011;3687;47.648;8.204;2022-08-20T11:51:58;2.60;;;2.40;;
7291;SDS011;3687;47.648;8.204;2022-08-20T11:54:24;3.07;;;2.50;;
7291;SDS011;3687;47.648;8.204;2022-08-20T11:56:52;2.87;;;2.67;;
7291;SDS011;3687;47.648;8.204;2022-08-20T11:59:20;2.40;;;2.30;;
7291;SDS011;3687;47.648;8.204;2022-08-20T12:01:46;2.67;;;2.47;;
7291;SDS011;3687;47.648;8.204;2022-08-20T12:04:11;2.70;;;2.50;;
7291;SDS011;3687;47.648;8.204;2022-08-20T12:06:37;2.57;;;2.47;;
7291;SDS011;3687;47.648;8.204;2022-08-20T12:09:02;2.63;;;2.43;;
7291;SDS011;3687;47.648;8.204;2022-08-20T12:11:28;2.40;;;2.20;;
7291;SDS011;3687;47.648;8.204;2022-08-20T12:13:53;2.40;;;2.30;;
7291;SDS011;3687;47.648;8.204;2022-08-20T12:16:19;2.70;;;2.50;;
7291;SDS011;3687;47.648;8.204;2022-08-20T12:18:45;2.17;;;2.07;;
7291;SDS011;3687;47.648;8.204;2022-08-20T12:21:11;2.30;;;2.20;;
7291;SDS011;3687;47.648;8.204;2022-08-20T12:23:37;2.90;;;2.70;;
7291;SDS011;3687;47.648;8.204;2022-08-20T12:26:03;2.20;;;2.10;;
7291;SDS011;3687;47.648;8.204;2022-08-20T12:28:29;7.00;;;2.17;;
7291;SDS011;3687;47.648;8.204;2022-08-20T12:30:55;2.53;;;2.33;;
7291;SDS011;3687;47.648;8.204;2022-08-20T12:33:21;2.80;;;2.60;;
7291;SDS011;3687;47.648;8.204;2022-08-20T12:35:47;2.40;;;2.30;;
7291;SDS011;3687;47.648;8.204;2022-08-20T12:38:12;2.40;;;2.30;;
7291;SDS011;3687;47.648;8.204;2022-08-20T12:40:38;2.70;;;2.50;;
7291;SDS011;3687;47.648;8.204;2022-08-20T12:43:04;2.00;;;1.90;;
7291;SDS011;3687;47.648;8.204;2022-08-20T12:45:30;2.60;;;2.17;;
7291;SDS011;3687;47.648;8.204;2022-08-20T12:48:01;2.30;;;2.20;;
7291;SDS011;3687;47.648;8.204;2022-08-20T12:50:29;2.47;;;2.27;;
7291;SDS011;3687;47.648;8.204;2022-08-20T12:52:56;2.40;;;2.30;;
7291;SDS011;3687;47.648;8.204;2022-08-20T12:55:21;2.37;;;2.27;;
7291;SDS011;3687;47.648;8.204;2022-08-20T12:57:48;2.13;;;2.03;;
7291;SDS011;3687;47.648;8.204;2022-08-20T13:00:27;2.40;;;2.30;;
7291;SDS011;3687;47.648;8.204;2022-08-20T13:02:58;2.70;;;2.37;;
7291;SDS011;3687;47.648;8.204;2022-08-20T13:05:25;2.33;;;2.20;;
7291;SDS011;3687;47.648;8.204;2022-08-20T13:07:52;2.27;;;2.17;;
7291;SDS011;3687;47.648;8.204;2022-08-20T13:10:20;2.20;;;2.10;;
7291;SDS011;3687;47.648;8.204;2022-08-20T13:12:48;2.87;;;2.67;;
7291;SDS011;3687;47.648;8.204;2022-08-20T13:15:13;2.20;;;2.10;;
7291;SDS011;3687;47.648;8.204;2022-08-20T13:17:40;2.40;;;1.90;;
7291;SDS011;3687;47.648;8.204;2022-08-20T13:20:06;2.10;;;2.00;;
7291;SDS011;3687;47.648;8.204;2022-08-20T13:22:35;2.20;;;2.10;;
7291;SDS011;3687;47.648;8.204;2022-08-20T13:25:01;2.30;;;2.10;;
7291;SDS011;3687;47.648;8.204;2022-08-20T13:27:27;2.20;;;2.10;;
7291;SDS011;3687;47.648;8.204;2022-08-20T13:29:53;2.10;;;2.00;;
7291;SDS011;3687;47.648;8.204;2022-08-20T13:32:20;2.10;;;2.00;;
7291;SDS011;3687;47.648;8.204;2022-08-20T13:34:47;2.20;;;2.10;;
7291;SDS011;3687;47.648;8.204;2022-08-20T13:37:17;2.40;;;2.30;;
7291;SDS011;3687;47.648;8.204;2022-08-20T13:39:44;2.40;;;2.20;;
7291;SDS011;3687;47.648;8.204;2022-08-20T13:42:10;2.00;;;1.90;;
7291;SDS011;3687;47.648;8.204;2022-08-20T13:44:36;2.27;;;2.13;;
7291;SDS011;3687;47.648;8.204;2022-08-20T13:47:22;2.20;;;2.10;;
7291;SDS011;3687;47.648;8.204;2022-08-20T13:49:55;2.50;;;2.40;;
7291;SDS011;3687;47.648;8.204;2022-08-20T13:52:22;2.70;;;2.20;;
7291;SDS011;3687;47.648;8.204;2022-08-20T13:54:48;2.30;;;2.20;;
7291;SDS011;3687;47.648;8.204;2022-08-20T13:57:15;2.30;;;2.20;;
7291;SDS011;3687;47.648;8.204;2022-08-20T13:59:43;2.70;;;2.20;;
7291;SDS011;3687;47.648;8.204;2022-08-20T14:02:11;2.30;;;2.20;;
7291;SDS011;3687;47.648;8.204;2022-08-20T14:04:37;2.17;;;2.07;;
7291;SDS011;3687;47.648;8.204;2022-08-20T14:07:10;2.20;;;2.10;;
7291;SDS011;3687;47.648;8.204;2022-08-20T14:09:39;2.10;;;2.00;;
7291;SDS011;3687;47.648;8.204;2022-08-20T14:12:07;2.13;;;2.03;;
7291;SDS011;3687;47.648;8.204;2022-08-20T14:14:33;2.17;;;2.07;;
7291;SDS011;3687;47.648;8.204;2022-08-20T14:17:10;2.47;;;2.37;;
7291;SDS011;3687;47.648;8.204;2022-08-20T14:19:38;2.40;;;2.30;;
7291;SDS011;3687;47.648;8.204;2022-08-20T14:22:03;2.20;;;2.10;;
7291;SDS011;3687;47.648;8.204;2022-08-20T14:24:29;2.37;;;2.23;;
7291;SDS011;3687;47.648;8.204;2022-08-20T14:26:55;2.13;;;2.03;;
7291;SDS011;3687;47.648;8.204;2022-08-20T14:29:20;2.37;;;2.20;;
7291;SDS011;3687;47.648;8.204;2022-08-20T14:31:47;2.10;;;2.00;;
7291;SDS011;3687;47.648;8.204;2022-08-20T14:34:13;2.20;;;2.07;;
7291;SDS011;3687;47.648;8.204;2022-08-20T14:36:39;2.40;;;2.20;;
7291;SDS011;3687;47.648;8.204;2022-08-20T14:39:04;2.00;;;1.90;;
7291;SDS011;3687;47.648;8.204;2022-08-20T14:41:30;1.90;;;1.80;;
7291;SDS011;3687;47.648;8.204;2022-08-20T14:43:56;2.50;;;2.30;;
7291;SDS011;3687;47.648;8.204;2022-08-20T14:46:21;1.83;;;1.73;;
7291;SDS011;3687;47.648;8.204;2022-08-20T14:48:47;2.13;;;2.03;;
7291;SDS011;3687;47.648;8.204;2022-08-20T14:51:12;2.30;;;2.20;;
7291;SDS011;3687;47.648;8.204;2022-08-20T14:53:38;2.13;;;2.00;;
7291;SDS011;3687;47.648;8.204;2022-08-20T14:56:04;1.90;;;1.80;;
7291;SDS011;3687;47.648;8.204;2022-08-20T14:58:30;1.90;;;1.80;;
7291;SDS011;3687;47.648;8.204;2022-08-20T15:00:55;1.93;;;1.83;;
7291;SDS011;3687;47.648;8.204;2022-08-20T15:03:21;1.90;;;1.80;;
7291;SDS011;3687;47.648;8.204;2022-08-20T15:05:49;2.37;;;2.20;;
7291;SDS011;3687;47.648;8.204;2022-08-20T15:08:15;2.00;;;1.90;;
7291;SDS011;3687;47.648;8.204;2022-08-20T15:10:40;1.70;;;1.60;;
7291;SDS011;3687;47.648;8.204;2022-08-20T15:13:06;2.30;;;2.10;;
7291;SDS011;3687;47.648;8.204;2022-08-20T15:15:32;1.90;;;1.80;;
7291;SDS011;3687;47.648;8.204;2022-08-20T15:17:59;1.80;;;1.70;;
7291;SDS011;3687;47.648;8.204;2022-08-20T15:20:25;2.00;;;1.90;;
7291;SDS011;3687;47.648;8.204;2022-08-20T15:22:53;1.90;;;1.80;;
7291;SDS011;3687;47.648;8.204;2022-08-20T15:25:21;2.30;;;2.10;;